createdAt,value
2019-02-22T00:01:59.409Z,75.73
2019-02-22T00:04:26.565Z,76.23
2019-02-22T00:06:53.740Z,76.50
2019-02-22T00:09:21.161Z,76.74
2019-02-22T00:11:48.362Z,76.77
2019-02-22T00:14:15.571Z,76.84
2019-02-22T00:16:42.775Z,76.93
2019-02-22T00:19:10.045Z,76.95
2019-02-22T00:21:37.229Z,77.00
2019-02-22T00:24:04.471Z,77.00
2019-02-22T00:26:31.691Z,76.78
2019-02-22T00:28:58.988Z,76.47
2019-02-22T00:31:26.208Z,76.43
2019-02-22T00:33:54.387Z,76.39
2019-02-22T00:36:21.636Z,76.20
2019-02-22T00:38:48.706Z,75.81
2019-02-22T00:41:15.887Z,75.70
2019-02-22T00:43:44.080Z,75.66
2019-02-22T00:46:11.267Z,75.52
2019-02-22T00:48:38.740Z,75.39
2019-02-22T00:51:05.919Z,75.26
2019-02-22T00:53:33.259Z,75.23
2019-02-22T00:56:00.409Z,75.15
2019-02-22T00:58:27.620Z,75.12
2019-02-22T01:00:54.832Z,75.16
2019-02-22T01:03:22.441Z,74.92
2019-02-22T01:05:49.546Z,74.72
2019-02-22T01:08:16.736Z,74.69
2019-02-22T01:10:44.601Z,74.71
2019-02-22T01:13:11.763Z,74.40
2019-02-22T01:15:39.196Z,74.45
2019-02-22T01:18:06.261Z,74.35
2019-02-22T01:20:33.739Z,74.29
2019-02-22T01:23:00.918Z,74.17
2019-02-22T01:25:28.196Z,74.17
2019-02-22T01:27:55.483Z,74.35
2019-02-22T01:30:22.734Z,74.49
2019-02-22T01:32:49.784Z,74.55
2019-02-22T01:35:16.978Z,74.65
2019-02-22T01:37:44.100Z,74.29
2019-02-22T01:40:11.300Z,74.36
2019-02-22T01:42:38.574Z,74.44
2019-02-22T01:45:06.264Z,74.45
2019-02-22T01:47:33.439Z,74.31
2019-02-22T01:50:00.609Z,74.17
2019-02-22T01:52:27.919Z,74.23
2019-02-22T01:54:55.008Z,74.14
2019-02-22T01:57:22.196Z,74.07
2019-02-22T01:59:49.588Z,73.86
2019-02-22T02:02:16.797Z,73.49
2019-02-22T02:04:44.006Z,73.36
2019-02-22T02:07:11.374Z,73.55
2019-02-22T02:09:38.914Z,73.61
2019-02-22T02:12:06.111Z,73.68
2019-02-22T02:14:33.328Z,73.44
2019-02-22T02:17:00.536Z,73.25
2019-02-22T02:19:27.718Z,73.66
2019-02-22T02:21:54.951Z,73.95
2019-02-22T02:24:22.124Z,74.65
2019-02-22T02:26:49.345Z,75.01
2019-02-22T02:29:16.537Z,75.80
2019-02-22T02:31:44.135Z,76.12
2019-02-22T02:34:11.309Z,76.70
2019-02-22T02:36:38.532Z,77.28
2019-02-22T02:39:06.217Z,77.50
2019-02-22T02:41:33.494Z,77.54
2019-02-22T02:44:00.914Z,77.57
2019-02-22T02:46:28.180Z,77.85
2019-02-22T02:48:55.719Z,78.11
2019-02-22T02:51:22.996Z,78.42
2019-02-22T02:53:50.316Z,78.72
2019-02-22T02:56:17.493Z,78.97
2019-02-22T02:58:44.735Z,79.07
2019-02-22T03:01:11.969Z,79.02
2019-02-22T03:03:39.645Z,78.80
2019-02-22T03:06:29.902Z,78.65
2019-02-22T03:08:57.465Z,78.35
2019-02-22T03:11:24.690Z,77.97
2019-02-22T03:13:52.373Z,77.91
2019-02-22T03:16:20.078Z,77.69
2019-02-22T03:18:47.278Z,77.38
2019-02-22T03:21:14.488Z,77.25
2019-02-22T03:23:42.133Z,76.99
2019-02-22T03:26:09.514Z,76.97
2019-02-22T03:28:36.830Z,76.79
2019-02-22T03:31:04.005Z,76.66
2019-02-22T03:33:31.189Z,76.67
2019-02-22T03:35:58.387Z,76.63
2019-02-22T03:38:25.663Z,76.66
2019-02-22T03:40:52.861Z,76.81
2019-02-22T03:43:20.085Z,76.71
2019-02-22T03:46:28.072Z,76.82
2019-02-22T03:49:27.195Z,76.93
2019-02-22T03:55:27.885Z,76.78
2019-02-22T04:00:56.741Z,76.75
2019-02-22T04:03:35.567Z,76.63
2019-02-22T04:06:02.816Z,76.71
2019-02-22T04:11:31.423Z,77.07
2019-02-22T04:13:58.647Z,77.12
2019-02-22T04:16:45.333Z,77.17
2019-02-22T04:19:32.003Z,76.87
2019-02-22T04:25:45.206Z,77.23
2019-02-22T04:28:12.401Z,77.49
2019-02-22T04:30:39.478Z,77.78
2019-02-22T04:35:47.157Z,77.91
2019-02-22T04:38:14.385Z,77.97
2019-02-22T04:46:02.491Z,78.04
2019-02-22T04:49:10.492Z,78.18
2019-02-22T04:51:58.994Z,78.17
2019-02-22T04:54:26.404Z,78.32
2019-02-22T04:57:05.923Z,78.43
2019-02-22T05:03:26.499Z,78.56
2019-02-22T05:05:53.589Z,78.63
2019-02-22T05:08:40.249Z,78.58
2019-02-22T05:11:07.811Z,78.68
2019-02-22T05:13:46.957Z,78.74
2019-02-22T05:19:33.967Z,79.01
2019-02-22T05:22:01.152Z,78.89
2019-02-22T05:24:40.331Z,78.72
2019-02-22T05:27:07.476Z,78.67
2019-02-22T05:29:34.572Z,78.67
2019-02-22T05:32:01.749Z,78.69
2019-02-22T05:34:28.914Z,78.77
2019-02-22T05:36:56.113Z,78.56
2019-02-22T05:39:23.317Z,78.31
2019-02-22T05:41:50.435Z,77.96
2019-02-22T05:44:17.670Z,77.64
2019-02-22T05:47:16.534Z,77.06
2019-02-22T05:50:03.178Z,76.60
2019-02-22T05:52:49.944Z,76.30
2019-02-22T05:58:16.550Z,75.85
2019-02-22T06:01:03.204Z,75.70
2019-02-22T06:03:49.907Z,75.43
2019-02-22T06:06:17.094Z,75.17
2019-02-22T06:08:44.283Z,75.00
2019-02-22T06:11:11.814Z,74.94
2019-02-22T06:13:39.000Z,74.82
2019-02-22T06:16:06.478Z,74.86
2019-02-22T06:18:34.046Z,74.75
2019-02-22T06:21:01.476Z,74.83
2019-02-22T06:23:28.906Z,74.85
2019-02-22T06:29:16.925Z,74.79
2019-02-22T06:34:45.731Z,74.41
2019-02-22T06:40:26.249Z,74.23
2019-02-22T06:42:53.436Z,74.22
2019-02-22T06:45:20.751Z,74.19
2019-02-22T06:48:07.310Z,74.17
2019-02-22T06:50:34.439Z,74.13
2019-02-22T06:53:01.660Z,73.95
2019-02-22T06:55:42.529Z,73.67
2019-02-22T06:58:29.101Z,73.31
2019-02-22T07:00:56.711Z,73.16
2019-02-22T07:03:23.940Z,73.05
2019-02-22T07:05:51.038Z,72.96
2019-02-22T07:08:39.543Z,72.88
2019-02-22T07:11:20.977Z,72.90
2019-02-22T07:13:48.241Z,72.72
2019-02-22T07:16:15.531Z,72.47
2019-02-22T07:18:42.749Z,72.35
2019-02-22T07:21:09.931Z,72.34
2019-02-22T07:23:37.104Z,72.07
2019-02-22T07:26:04.216Z,71.55
2019-02-22T07:28:31.396Z,71.28
2019-02-22T07:30:58.474Z,70.82
2019-02-22T07:33:25.659Z,70.50
2019-02-22T07:35:52.813Z,70.36
2019-02-22T07:38:19.986Z,70.08
2019-02-22T07:40:47.173Z,69.56
2019-02-22T07:43:14.436Z,68.96
2019-02-22T07:45:41.637Z,68.78
2019-02-22T07:48:08.708Z,68.31
2019-02-22T07:50:35.840Z,67.84
2019-02-22T07:53:02.972Z,67.51
2019-02-22T07:55:30.166Z,67.28
2019-02-22T07:57:57.368Z,67.00
2019-02-22T08:00:24.539Z,66.77
2019-02-22T08:02:51.686Z,66.52
2019-02-22T08:05:18.957Z,66.39
2019-02-22T08:07:46.021Z,66.12
2019-02-22T08:10:13.223Z,66.10
2019-02-22T08:12:40.874Z,66.03
2019-02-22T08:15:08.872Z,65.66
2019-02-22T08:17:36.169Z,65.49
2019-02-22T08:20:03.808Z,64.90
2019-02-22T08:22:31.024Z,64.84
2019-02-22T08:24:59.302Z,64.59
2019-02-22T08:27:26.544Z,64.20
2019-02-22T08:29:53.719Z,63.91
2019-02-22T08:32:21.122Z,63.83
2019-02-22T08:34:48.332Z,62.86
2019-02-22T08:37:15.516Z,62.32
2019-02-22T08:39:42.723Z,61.91
2019-02-22T08:42:10.247Z,61.91
2019-02-22T08:44:37.425Z,61.78
2019-02-22T08:47:04.622Z,61.60
2019-02-22T08:49:31.703Z,60.83
2019-02-22T08:51:58.915Z,59.82
2019-02-22T08:54:25.995Z,57.95
2019-02-22T08:56:53.278Z,57.93
2019-02-22T08:59:20.811Z,57.58
2019-02-22T09:01:47.998Z,57.41
2019-02-22T09:04:15.197Z,56.30
2019-02-22T09:06:42.457Z,56.07
2019-02-22T09:09:09.629Z,55.07
2019-02-22T09:11:36.886Z,54.70
2019-02-22T09:14:04.081Z,54.25
2019-02-22T09:16:31.293Z,53.76
2019-02-22T09:18:58.498Z,53.38
2019-02-22T09:21:25.750Z,51.94
2019-02-22T09:23:53.025Z,50.60
2019-02-22T09:26:20.612Z,48.88
2019-02-22T09:28:48.296Z,47.79
2019-02-22T09:31:15.472Z,47.34
2019-02-22T09:33:42.695Z,48.59
2019-02-22T09:36:10.265Z,47.21
2019-02-22T09:38:37.480Z,46.52
2019-02-22T09:41:04.773Z,46.81
2019-02-22T09:43:31.993Z,45.79
2019-02-22T09:46:00.377Z,44.95
2019-02-22T09:48:31.021Z,44.14
2019-02-22T09:50:58.717Z,42.71
2019-02-22T09:53:26.308Z,43.10
2019-02-22T09:56:00.775Z,42.79
2019-02-22T10:01:42.869Z,45.59
2019-02-22T10:04:10.508Z,46.01
2019-02-22T10:06:37.851Z,45.40
2019-02-22T10:09:06.247Z,45.22
2019-02-22T10:11:33.709Z,44.93
2019-02-22T10:14:06.606Z,45.34
2019-02-22T10:16:30.311Z,45.18
2019-02-22T10:18:57.629Z,46.25
2019-02-22T10:21:25.006Z,46.25
2019-02-22T10:23:52.341Z,47.20
2019-02-22T10:26:21.383Z,47.04
2019-02-22T10:28:48.856Z,45.58
2019-02-22T10:31:16.340Z,45.60
2019-02-22T10:33:43.625Z,45.05
2019-02-22T10:36:10.923Z,43.66
2019-02-22T10:38:38.556Z,43.85
2019-02-22T10:41:05.757Z,45.35
2019-02-22T10:43:32.954Z,45.61
2019-02-22T10:46:00.143Z,45.82
2019-02-22T10:48:27.331Z,44.79
2019-02-22T10:50:54.441Z,44.54
2019-02-22T10:53:21.683Z,45.69
2019-02-22T10:55:48.881Z,46.54
2019-02-22T10:58:16.147Z,47.33
2019-02-22T11:00:43.462Z,48.28
2019-02-22T11:03:10.625Z,48.51
2019-02-22T11:05:37.734Z,48.89
2019-02-22T11:08:04.939Z,49.19
2019-02-22T11:10:32.871Z,49.13
2019-02-22T11:13:00.120Z,49.50
2019-02-22T11:15:27.384Z,49.74
2019-02-22T11:17:54.545Z,50.21
2019-02-22T11:20:22.290Z,50.37
2019-02-22T11:22:49.494Z,50.76
2019-02-22T11:25:16.794Z,51.07
2019-02-22T11:27:43.927Z,51.81
2019-02-22T11:30:11.377Z,52.96
2019-02-22T11:32:38.856Z,53.35
2019-02-22T11:35:06.458Z,53.89
2019-02-22T11:37:33.933Z,55.09
2019-02-22T11:40:01.111Z,54.97
2019-02-22T11:42:28.297Z,53.65
2019-02-22T11:44:55.536Z,52.81
2019-02-22T11:47:22.672Z,51.57
2019-02-22T11:49:49.881Z,51.28
2019-02-22T11:52:17.087Z,51.88
2019-02-22T11:54:44.279Z,51.79
2019-02-22T11:57:11.630Z,51.62
2019-02-22T11:59:38.910Z,51.47
2019-02-22T12:02:06.060Z,51.98
2019-02-22T12:04:33.232Z,52.68
2019-02-22T12:07:00.460Z,53.00
2019-02-22T12:09:28.510Z,52.81
2019-02-22T12:11:55.664Z,53.32
2019-02-22T12:14:22.890Z,52.01
2019-02-22T12:16:50.031Z,51.30
2019-02-22T12:19:17.354Z,51.40
2019-02-22T12:21:44.526Z,52.00
2019-02-22T12:24:11.714Z,51.97
2019-02-22T12:26:39.500Z,52.57
2019-02-22T12:29:10.037Z,53.16
2019-02-22T12:31:37.237Z,52.84
2019-02-22T12:34:04.442Z,52.67
2019-02-22T12:36:31.647Z,52.96
2019-02-22T12:38:58.899Z,52.60
2019-02-22T12:41:26.080Z,52.51
2019-02-22T12:43:53.360Z,52.59
2019-02-22T12:46:20.516Z,52.46
2019-02-22T12:48:47.716Z,52.46
2019-02-22T12:51:14.974Z,52.50
2019-02-22T12:53:42.173Z,52.59
2019-02-22T12:56:09.342Z,52.26
2019-02-22T12:58:36.561Z,51.72
2019-02-22T13:01:03.831Z,51.20
2019-02-22T13:03:31.273Z,51.37
2019-02-22T13:05:59.131Z,50.68
2019-02-22T13:08:26.299Z,50.34
2019-02-22T13:10:53.475Z,51.00
2019-02-22T13:13:20.687Z,51.33
2019-02-22T13:15:47.844Z,51.40
2019-02-22T13:18:15.059Z,51.29
2019-02-22T13:20:42.169Z,50.48
2019-02-22T13:23:09.363Z,49.85
2019-02-22T13:25:36.595Z,50.32
2019-02-22T13:28:03.896Z,50.48
2019-02-22T13:30:31.063Z,50.55
2019-02-22T13:32:58.235Z,50.80
2019-02-22T13:35:25.441Z,50.60
2019-02-22T13:37:52.694Z,50.16
2019-02-22T13:40:20.207Z,49.77
2019-02-22T13:42:47.425Z,49.20
2019-02-22T13:45:25.643Z,49.33
2019-02-22T13:47:43.744Z,49.18
2019-02-22T13:50:11.723Z,49.59
2019-02-22T13:52:39.077Z,49.55
2019-02-22T13:55:06.640Z,48.92
2019-02-22T13:57:33.844Z,48.36
2019-02-22T14:00:01.141Z,48.33
2019-02-22T14:02:28.318Z,48.82
2019-02-22T14:04:55.510Z,49.53
2019-02-22T14:07:22.683Z,50.06
2019-02-22T14:09:49.951Z,50.46
2019-02-22T14:12:17.976Z,50.65
2019-02-22T14:14:45.179Z,50.14
2019-02-22T14:17:12.265Z,50.60
2019-02-22T14:19:39.779Z,50.39
2019-02-22T14:22:06.989Z,50.57
2019-02-22T14:24:34.238Z,51.22
2019-02-22T14:27:01.475Z,50.68
2019-02-22T14:29:29.085Z,50.91
2019-02-22T14:31:56.320Z,51.24
2019-02-22T14:34:23.590Z,51.03
2019-02-22T14:36:51.150Z,51.16
2019-02-22T14:39:18.273Z,51.08
2019-02-22T14:41:46.074Z,51.01
2019-02-22T14:44:13.275Z,50.96
2019-02-22T14:46:41.031Z,51.06
2019-02-22T14:49:08.702Z,51.32
2019-02-22T14:51:35.946Z,51.87
2019-02-22T14:54:03.106Z,51.88
2019-02-22T14:56:30.699Z,52.25
2019-02-22T14:58:57.868Z,52.11
2019-02-22T15:01:25.049Z,51.79
2019-02-22T15:03:52.281Z,52.30
2019-02-22T15:06:19.470Z,51.96
2019-02-22T15:08:46.640Z,52.13
2019-02-22T15:11:13.838Z,52.73
2019-02-22T15:13:41.156Z,53.05
2019-02-22T15:16:39.933Z,52.90
2019-02-22T15:19:07.090Z,52.85
2019-02-22T15:21:34.630Z,52.97
2019-02-22T15:24:01.892Z,53.26
2019-02-22T15:26:29.265Z,53.62
2019-02-22T15:28:56.483Z,53.60
2019-02-22T15:31:23.680Z,53.88
2019-02-22T15:33:51.145Z,54.14
2019-02-22T15:36:18.691Z,54.43
2019-02-22T15:38:46.093Z,54.35
2019-02-22T15:41:13.241Z,55.07
2019-02-22T15:43:40.400Z,55.65
2019-02-22T15:46:12.320Z,56.16
2019-02-22T15:48:37.121Z,56.42
2019-02-22T15:51:07.166Z,56.60
2019-02-22T15:53:33.467Z,56.74
2019-02-22T15:56:00.723Z,56.55
2019-02-22T15:58:27.913Z,56.68
2019-02-22T16:00:55.196Z,56.33
2019-02-22T16:03:22.536Z,56.90
2019-02-22T16:05:49.729Z,57.03
2019-02-22T16:08:16.958Z,57.26
2019-02-22T16:10:44.652Z,57.57
2019-02-22T16:13:11.904Z,57.68
2019-02-22T16:15:40.656Z,58.46
2019-02-22T16:18:08.021Z,59.42
2019-02-22T16:20:35.173Z,60.26
2019-02-22T16:23:02.355Z,61.11
2019-02-22T16:25:29.673Z,61.67
2019-02-22T16:27:57.138Z,62.50
2019-02-22T16:30:26.523Z,63.38
2019-02-22T16:32:53.705Z,64.20
2019-02-22T16:35:20.943Z,65.04
2019-02-22T16:37:48.263Z,65.88
2019-02-22T16:40:15.485Z,66.61
2019-02-22T16:42:42.724Z,67.32
2019-02-22T16:45:09.961Z,67.35
2019-02-22T16:47:40.345Z,67.42
2019-02-22T16:50:08.432Z,67.90
2019-02-22T16:52:35.617Z,67.37
2019-02-22T16:55:03.220Z,67.91
2019-02-22T16:57:30.847Z,68.66
2019-02-22T16:59:58.098Z,69.41
2019-02-22T17:02:25.285Z,69.84
2019-02-22T17:04:52.596Z,70.46
2019-02-22T17:07:19.782Z,71.11
2019-02-22T17:09:46.931Z,71.18
2019-02-22T17:12:14.486Z,71.63
2019-02-22T17:14:41.742Z,71.99
2019-02-22T17:17:08.925Z,72.29
2019-02-22T17:19:36.096Z,72.53
2019-02-22T17:22:03.341Z,72.79
2019-02-22T17:24:30.807Z,73.45
2019-02-22T17:26:58.042Z,73.58
2019-02-22T17:29:25.619Z,73.57
2019-02-22T17:31:52.888Z,74.04
2019-02-22T17:34:20.064Z,74.50
2019-02-22T17:36:47.250Z,75.13
2019-02-22T17:39:14.432Z,75.34
2019-02-22T17:41:42.873Z,75.04
2019-02-22T17:44:10.484Z,75.31
2019-02-22T17:46:37.708Z,75.40
2019-02-22T17:49:04.889Z,75.51
2019-02-22T17:51:32.114Z,75.53
2019-02-22T17:53:59.335Z,75.76
2019-02-22T17:56:26.600Z,75.72
2019-02-22T17:58:53.859Z,75.80
2019-02-22T18:01:21.050Z,76.08
2019-02-22T18:03:48.844Z,76.57
2019-02-22T18:06:16.412Z,74.75
2019-02-22T18:08:43.832Z,74.40
2019-02-22T18:11:11.046Z,74.04
2019-02-22T18:13:38.330Z,73.88
2019-02-22T18:16:05.561Z,73.93
2019-02-22T18:18:32.852Z,74.78
2019-02-22T18:21:00.084Z,75.78
2019-02-22T18:23:27.812Z,76.07
2019-02-22T18:25:55.181Z,76.52
2019-02-22T18:28:22.591Z,76.50
2019-02-22T18:30:49.820Z,76.64
2019-02-22T18:33:17.017Z,76.83
2019-02-22T18:35:44.100Z,77.04
2019-02-22T18:38:11.292Z,76.75
2019-02-22T18:40:38.460Z,76.63
2019-02-22T18:43:05.725Z,76.70
2019-02-22T18:45:32.890Z,76.82
2019-02-22T18:48:00.011Z,76.79
2019-02-22T18:50:27.221Z,76.92
2019-02-22T18:52:54.436Z,77.08
2019-02-22T18:55:21.630Z,77.22
2019-02-22T18:57:49.175Z,77.18
2019-02-22T19:00:17.311Z,77.25
2019-02-22T19:02:44.634Z,77.46
2019-02-22T19:05:11.856Z,77.46
2019-02-22T19:07:39.373Z,77.43
2019-02-22T19:10:07.643Z,77.66
2019-02-22T19:12:34.943Z,77.94
2019-02-22T19:15:02.837Z,77.88
2019-02-22T19:17:30.762Z,78.04
2019-02-22T19:19:58.065Z,78.12
2019-02-22T19:22:25.264Z,78.10
2019-02-22T19:24:52.490Z,78.41
2019-02-22T19:27:19.709Z,78.51
2019-02-22T19:29:47.099Z,78.74
2019-02-22T19:32:14.335Z,78.80
2019-02-22T19:34:41.563Z,78.82
2019-02-22T19:37:09.127Z,78.87
2019-02-22T19:39:36.430Z,78.41
2019-02-22T19:42:03.676Z,78.41
2019-02-22T19:44:30.859Z,78.86
2019-02-22T19:46:58.089Z,79.39
2019-02-22T19:49:25.287Z,79.89
2019-02-22T19:51:52.536Z,80.32
2019-02-22T19:54:19.999Z,80.53
2019-02-22T19:56:47.231Z,80.76
2019-02-22T19:59:14.463Z,80.81
2019-02-22T20:01:41.702Z,80.72
2019-02-22T20:04:08.885Z,80.71
2019-02-22T20:06:36.084Z,80.63
2019-02-22T20:09:05.157Z,80.81
2019-02-22T20:11:32.724Z,80.84
2019-02-22T20:14:00.227Z,80.89
2019-02-22T20:16:27.425Z,80.94
2019-02-22T20:18:54.950Z,81.18
2019-02-22T20:21:22.418Z,81.36
2019-02-22T20:23:49.669Z,81.33
2019-02-22T20:26:16.967Z,79.95
2019-02-22T20:28:44.188Z,78.36
2019-02-22T20:31:19.857Z,77.69
2019-02-22T20:33:40.561Z,78.08
2019-02-22T20:36:07.777Z,78.06
2019-02-22T20:38:35.037Z,78.39
2019-02-22T20:41:02.661Z,79.25
2019-02-22T20:43:29.965Z,79.96
2019-02-22T20:45:57.512Z,80.44
2019-02-22T20:48:24.737Z,80.87
2019-02-22T20:50:51.880Z,80.86
2019-02-22T20:53:19.099Z,80.87
2019-02-22T20:55:46.324Z,81.19
2019-02-22T20:58:13.572Z,81.31
2019-02-22T21:00:40.707Z,81.36
2019-02-22T21:03:07.964Z,81.41
2019-02-22T21:05:35.311Z,81.49
2019-02-22T21:08:02.523Z,81.56
2019-02-22T21:10:29.719Z,81.58
2019-02-22T21:12:56.950Z,81.47
2019-02-22T21:15:24.444Z,81.02
2019-02-22T21:17:51.552Z,81.06
2019-02-22T21:20:18.757Z,81.01
2019-02-22T21:22:46.008Z,80.94
2019-02-22T21:25:13.521Z,80.94
2019-02-22T21:27:40.750Z,80.83
2019-02-22T21:30:09.318Z,80.26
2019-02-22T21:32:36.814Z,79.86
2019-02-22T21:35:03.996Z,79.68
2019-02-22T21:37:31.219Z,79.24
2019-02-22T21:39:58.743Z,79.05
2019-02-22T21:42:25.967Z,78.82
2019-02-22T21:44:53.155Z,78.62
2019-02-22T21:47:20.714Z,78.52
2019-02-22T21:49:48.172Z,78.48
2019-02-22T21:52:15.376Z,78.61
2019-02-22T21:54:42.569Z,77.89
2019-02-22T21:57:09.776Z,77.81
2019-02-22T21:59:37.187Z,77.75
2019-02-22T22:02:04.496Z,78.10
2019-02-22T22:04:31.958Z,78.15
2019-02-22T22:06:59.128Z,77.88
2019-02-22T22:09:26.692Z,78.10
2019-02-22T22:11:53.936Z,78.00
2019-02-22T22:14:21.119Z,78.08
2019-02-22T22:16:48.692Z,78.17
2019-02-22T22:19:15.889Z,78.06
2019-02-22T22:21:45.215Z,77.43
2019-02-22T22:24:12.252Z,77.29
2019-02-22T22:26:39.428Z,77.30
2019-02-22T22:29:06.626Z,77.28
2019-02-22T22:31:34.472Z,77.51
2019-02-22T22:34:01.663Z,77.42
2019-02-22T22:36:29.422Z,77.22
2019-02-22T22:38:56.614Z,77.37
2019-02-22T22:41:23.850Z,78.04
2019-02-22T22:43:51.061Z,78.63
2019-02-22T22:46:18.398Z,79.21
2019-02-22T22:48:50.361Z,79.12
2019-02-22T22:51:14.755Z,78.80
2019-02-22T22:53:42.291Z,78.19
2019-02-22T22:56:09.447Z,78.38
2019-02-22T22:58:36.641Z,78.66
2019-02-22T23:01:11.661Z,78.72
2019-02-22T23:03:39.543Z,78.84
2019-02-22T23:06:08.188Z,79.15
2019-02-22T23:08:35.377Z,79.31
2019-02-22T23:11:02.675Z,78.81
2019-02-22T23:13:29.879Z,78.85
2019-02-22T23:15:57.069Z,78.89
2019-02-22T23:18:24.261Z,79.06
2019-02-22T23:20:51.388Z,78.99
2019-02-22T23:23:18.705Z,79.40
2019-02-22T23:25:45.819Z,80.00
2019-02-22T23:28:13.014Z,80.54
2019-02-22T23:30:40.209Z,80.62
2019-02-22T23:33:07.417Z,80.69
2019-02-22T23:35:34.510Z,80.45
2019-02-22T23:38:01.836Z,80.33
2019-02-22T23:40:29.119Z,79.93
2019-02-22T23:42:56.311Z,79.52
2019-02-22T23:45:23.582Z,79.96
2019-02-22T23:47:50.664Z,80.09
2019-02-22T23:50:17.992Z,79.35
2019-02-22T23:52:45.483Z,79.24
2019-02-22T23:55:12.649Z,79.43
2019-02-22T23:57:39.913Z,79.58
